createdAt,value
2023-01-10T00:00:42.484Z,101066.97
2023-01-10T00:03:10.600Z,101068.97
2023-01-10T00:05:38.747Z,101070.81
2023-01-10T00:08:06.566Z,101079.38
2023-01-10T00:10:34.329Z,101075.34
2023-01-10T00:13:19.399Z,101092.25
2023-01-10T00:15:46.579Z,101090.09
2023-01-10T00:18:13.042Z,101104.44
2023-01-10T00:20:39.441Z,101102.78
2023-01-10T00:23:05.851Z,101104.44
2023-01-10T00:25:36.075Z,101110.16
2023-01-10T00:28:21.358Z,101110.81
2023-01-10T00:30:54.890Z,101103.28
2023-01-10T00:33:22.077Z,101107.50
2023-01-10T00:35:48.660Z,101104.13
2023-01-10T00:38:15.430Z,101113.50
2023-01-10T00:40:41.814Z,101117.19
2023-01-10T00:43:28.939Z,101123.06
2023-01-10T00:45:55.473Z,101145.50
2023-01-10T00:48:21.865Z,101140.63
2023-01-10T00:50:48.342Z,101135.25
2023-01-10T00:53:14.836Z,101136.78
2023-01-10T00:55:41.321Z,101144.16
2023-01-10T00:58:11.498Z,101146.34
2023-01-10T01:00:38.806Z,101152.19
2023-01-10T01:03:06.854Z,101146.84
2023-01-10T01:05:33.835Z,101151.34
2023-01-10T01:08:00.260Z,101156.69
2023-01-10T01:10:26.725Z,101162.22
2023-01-10T01:12:58.779Z,101166.56
2023-01-10T01:15:26.988Z,101171.41
2023-01-10T01:17:54.851Z,101164.41
2023-01-10T01:20:21.733Z,101170.25
2023-01-10T01:22:48.437Z,101169.94
2023-01-10T01:25:14.877Z,101172.44
2023-01-10T01:27:41.340Z,101175.28
2023-01-10T01:30:10.216Z,101176.97
2023-01-10T01:32:37.184Z,101184.16
2023-01-10T01:35:04.190Z,101188.50
2023-01-10T01:37:30.549Z,101198.91
2023-01-10T01:39:57.178Z,101197.22
2023-01-10T01:42:30.057Z,101199.72
2023-01-10T01:45:08.688Z,101204.06
2023-01-10T01:47:43.059Z,101212.09
2023-01-10T01:50:22.171Z,101208.09
2023-01-10T01:52:53.212Z,101216.28
2023-01-10T01:55:20.958Z,101212.47
2023-01-10T01:57:50.127Z,101208.78
2023-01-10T02:00:16.728Z,101213.94
2023-01-10T02:03:01.868Z,101207.44
2023-01-10T02:05:32.201Z,101208.59
2023-01-10T02:08:02.221Z,101214.44
2023-01-10T02:10:52.625Z,101203.09
2023-01-10T02:13:22.723Z,101199.91
2023-01-10T02:15:49.418Z,101212.78
2023-01-10T02:18:16.797Z,101212.94
2023-01-10T02:20:58.366Z,101214.78
2023-01-10T02:23:54.510Z,101220.16
2023-01-10T02:26:37.501Z,101217.97
2023-01-10T02:29:22.592Z,101228.56
2023-01-10T02:32:10.694Z,101222.00
2023-01-10T02:35:14.173Z,101223.19
2023-01-10T02:38:00.910Z,101221.84
2023-01-10T02:40:39.850Z,101231.53
2023-01-10T02:43:13.745Z,101230.50
2023-01-10T02:45:50.003Z,101231.66
2023-01-10T02:48:17.896Z,101220.63
2023-01-10T02:50:44.520Z,101230.19
2023-01-10T02:53:18.135Z,101231.53
2023-01-10T02:55:53.752Z,101233.19
2023-01-10T02:58:38.147Z,101230.81
2023-01-10T03:01:39.401Z,101243.38
2023-01-10T03:04:11.511Z,101255.28
2023-01-10T03:06:46.607Z,101257.59
2023-01-10T03:09:43.798Z,101250.91
2023-01-10T03:12:33.817Z,101262.78
2023-01-10T03:15:03.770Z,101264.28
2023-01-10T03:17:31.194Z,101259.63
2023-01-10T03:20:02.364Z,101271.00
2023-01-10T03:22:31.162Z,101271.00
2023-01-10T03:25:00.180Z,101280.75
2023-01-10T03:28:02.984Z,101290.13
2023-01-10T03:30:57.695Z,101299.50
2023-01-10T03:33:29.405Z,101302.84
2023-01-10T03:36:18.847Z,101301.31
2023-01-10T03:38:54.594Z,101309.53
2023-01-10T03:41:42.325Z,101309.69
2023-01-10T03:44:45.876Z,101317.75
2023-01-10T03:47:35.726Z,101317.56
2023-01-10T03:50:17.228Z,101321.78
2023-01-10T03:52:44.549Z,101317.06
2023-01-10T03:55:13.076Z,101316.94
2023-01-10T03:57:42.899Z,101332.84
2023-01-10T04:00:10.274Z,101320.09
2023-01-10T04:02:36.761Z,101324.47
2023-01-10T04:05:03.726Z,101332.34
2023-01-10T04:07:30.204Z,101334.84
2023-01-10T04:09:56.635Z,101341.06
2023-01-10T04:12:23.559Z,101337.19
2023-01-10T04:14:49.947Z,101343.19
2023-01-10T04:17:17.553Z,101342.50
2023-01-10T04:19:44.354Z,101344.88
2023-01-10T04:22:11.861Z,101353.75
2023-01-10T04:24:38.469Z,101360.63
2023-01-10T04:27:05.203Z,101357.59
2023-01-10T04:29:31.665Z,101364.66
2023-01-10T04:31:58.347Z,101374.38
2023-01-10T04:34:24.732Z,101376.53
2023-01-10T04:36:51.209Z,101374.53
2023-01-10T04:39:17.830Z,101370.34
2023-01-10T04:41:44.325Z,101381.88
2023-01-10T04:44:11.786Z,101383.56
2023-01-10T04:46:38.213Z,101378.53
2023-01-10T04:49:04.699Z,101381.22
2023-01-10T04:51:31.066Z,101377.84
2023-01-10T04:53:57.497Z,101377.53
2023-01-10T04:56:24.133Z,101378.53
2023-01-10T04:58:53.781Z,101371.66
2023-01-10T05:01:23.387Z,101362.63
2023-01-10T05:03:51.275Z,101365.28
2023-01-10T05:06:18.560Z,101369.16
2023-01-10T05:08:45.811Z,101382.38
2023-01-10T05:11:12.779Z,101393.25
2023-01-10T05:13:39.351Z,101390.06
2023-01-10T05:16:06.490Z,101393.72
2023-01-10T05:18:33.103Z,101394.22
2023-01-10T05:21:06.915Z,101409.16
2023-01-10T05:23:33.404Z,101410.81
2023-01-10T05:26:12.081Z,101419.56
2023-01-10T05:28:39.550Z,101415.34
2023-01-10T05:31:07.707Z,101429.44
2023-01-10T05:33:34.595Z,101427.75
2023-01-10T05:36:02.386Z,101439.81
2023-01-10T05:38:30.627Z,101432.47
2023-01-10T05:40:59.083Z,101438.66
2023-01-10T05:43:26.765Z,101445.69
2023-01-10T05:45:53.791Z,101436.47
2023-01-10T05:48:20.422Z,101430.94
2023-01-10T05:50:49.673Z,101432.63
2023-01-10T05:53:17.001Z,101431.63
2023-01-10T05:55:43.832Z,101437.13
2023-01-10T05:58:13.487Z,101445.16
2023-01-10T06:00:40.253Z,101451.19
2023-01-10T06:03:06.787Z,101452.84
2023-01-10T06:05:33.279Z,101461.72
2023-01-10T06:07:59.727Z,101474.13
2023-01-10T06:10:27.174Z,101466.06
2023-01-10T06:12:55.183Z,101472.31
2023-01-10T06:15:21.609Z,101473.13
2023-01-10T06:17:48.029Z,101464.09
2023-01-10T06:20:14.624Z,101471.28
2023-01-10T06:22:42.297Z,101471.44
2023-01-10T06:25:13.674Z,101468.75
2023-01-10T06:27:41.088Z,101485.53
2023-01-10T06:30:08.829Z,101477.31
2023-01-10T06:32:35.827Z,101483.38
2023-01-10T06:35:02.258Z,101487.91
2023-01-10T06:37:28.655Z,101486.88
2023-01-10T06:39:55.026Z,101490.22
2023-01-10T06:42:21.479Z,101496.47
2023-01-10T06:44:47.888Z,101493.91
2023-01-10T06:47:14.293Z,101500.44
2023-01-10T06:49:40.727Z,101510.63
2023-01-10T06:52:07.144Z,101507.78
2023-01-10T06:54:33.550Z,101512.00
2023-01-10T06:56:59.956Z,101507.47
2023-01-10T06:59:26.427Z,101511.84
2023-01-10T07:01:52.989Z,101519.34
2023-01-10T07:04:19.460Z,101522.72
2023-01-10T07:06:45.828Z,101533.44
2023-01-10T07:09:12.278Z,101533.56
2023-01-10T07:11:38.747Z,101537.56
2023-01-10T07:14:05.149Z,101543.94
2023-01-10T07:16:31.621Z,101552.66
2023-01-10T07:18:59.674Z,101557.03
2023-01-10T07:21:26.034Z,101561.69
2023-01-10T07:23:52.526Z,101570.56
2023-01-10T07:26:19.586Z,101569.72
2023-01-10T07:28:50.803Z,101577.75
2023-01-10T07:31:19.343Z,101576.59
2023-01-10T07:33:45.901Z,101578.75
2023-01-10T07:36:13.618Z,101573.88
2023-01-10T07:38:40.497Z,101590.53
2023-01-10T07:41:06.888Z,101578.84
2023-01-10T07:43:33.744Z,101580.69
2023-01-10T07:46:01.385Z,101571.28
2023-01-10T07:48:27.944Z,101579.47
2023-01-10T07:50:59.822Z,101572.59
2023-01-10T07:53:27.442Z,101581.78
2023-01-10T07:55:54.478Z,101589.50
2023-01-10T07:58:20.885Z,101597.38
2023-01-10T08:00:49.308Z,101592.00
2023-01-10T08:03:15.876Z,101584.69
2023-01-10T08:05:42.691Z,101584.63
2023-01-10T08:08:11.492Z,101586.91
2023-01-10T08:10:40.188Z,101587.72
2023-01-10T08:13:17.987Z,101590.41
2023-01-10T08:15:47.091Z,101592.94
2023-01-10T08:18:13.677Z,101600.16
2023-01-10T08:20:40.598Z,101600.16
2023-01-10T08:23:07.025Z,101586.06
2023-01-10T08:25:33.598Z,101596.75
2023-01-10T08:27:59.996Z,101602.81
2023-01-10T08:30:26.436Z,101594.56
2023-01-10T08:32:52.842Z,101592.88
2023-01-10T08:35:19.306Z,101597.91
2023-01-10T08:37:45.722Z,101594.78
2023-01-10T08:40:12.449Z,101595.63
2023-01-10T08:42:38.897Z,101586.75
2023-01-10T08:45:05.836Z,101592.84
2023-01-10T08:47:32.316Z,101585.59
2023-01-10T08:49:58.768Z,101584.91
2023-01-10T08:52:25.238Z,101583.06
2023-01-10T08:54:52.342Z,101574.03
2023-01-10T08:57:18.745Z,101584.91
2023-01-10T08:59:45.113Z,101575.59
2023-01-10T09:02:14.885Z,101585.28
2023-01-10T09:04:41.303Z,101580.94
2023-01-10T09:07:07.702Z,101577.47
2023-01-10T09:09:34.107Z,101572.44
2023-01-10T09:12:00.529Z,101589.34
2023-01-10T09:14:26.937Z,101593.69
2023-01-10T09:16:53.448Z,101587.34
2023-01-10T09:19:19.837Z,101588.63
2023-01-10T09:21:46.243Z,101584.56
2023-01-10T09:24:12.729Z,101581.84
2023-01-10T09:26:39.223Z,101576.84
2023-01-10T09:29:05.631Z,101582.31
2023-01-10T09:31:32.203Z,101574.72
2023-01-10T09:33:58.595Z,101572.94
2023-01-10T09:36:25.025Z,101573.50
2023-01-10T09:38:51.426Z,101571.59
2023-01-10T09:41:54.627Z,101566.19
2023-01-10T09:44:35.572Z,101564.25
2023-01-10T09:47:22.387Z,101566.69
2023-01-10T09:50:06.417Z,101577.88
2023-01-10T09:52:38.519Z,101578.03
2023-01-10T09:55:18.910Z,101576.50
2023-01-10T09:57:46.071Z,101583.91
2023-01-10T10:00:20.550Z,101566.47
2023-01-10T10:02:52.448Z,101559.16
2023-01-10T10:05:24.972Z,101565.47
2023-01-10T10:08:07.214Z,101567.19
2023-01-10T10:10:41.563Z,101572.66
2023-01-10T10:13:35.758Z,101569.44
2023-01-10T10:16:22.550Z,101569.44
2023-01-10T10:18:57.846Z,101577.25
2023-01-10T10:21:40.104Z,101566.09
2023-01-10T10:24:17.894Z,101570.06
2023-01-10T10:26:57.592Z,101557.94
2023-01-10T10:29:31.508Z,101555.88
2023-01-10T10:32:10.003Z,101549.44
2023-01-10T10:34:49.521Z,101538.44
2023-01-10T10:37:25.807Z,101541.38
2023-01-10T10:39:56.829Z,101538.25
2023-01-10T10:42:29.592Z,101533.28
2023-01-10T10:45:04.920Z,101536.34
2023-01-10T10:47:34.273Z,101542.38
2023-01-10T10:50:08.306Z,101525.50
2023-01-10T10:52:36.424Z,101531.97
2023-01-10T10:55:05.884Z,101531.69
2023-01-10T10:57:37.647Z,101520.44
2023-01-10T11:00:07.405Z,101510.34
2023-01-10T11:02:43.720Z,101505.69
2023-01-10T11:05:19.432Z,101502.31
2023-01-10T11:07:46.213Z,101507.28
2023-01-10T11:10:36.578Z,101499.00
2023-01-10T11:13:22.254Z,101504.22
2023-01-10T11:15:50.224Z,101513.63
2023-01-10T11:18:22.894Z,101498.88
2023-01-10T11:21:08.221Z,101500.63
2023-01-10T11:23:43.189Z,101488.84
2023-01-10T11:26:28.162Z,101492.94
2023-01-10T11:29:27.791Z,101488.44
2023-01-10T11:31:57.217Z,101486.75
2023-01-10T11:34:35.127Z,101480.69
2023-01-10T11:37:04.701Z,101475.28
2023-01-10T11:39:32.503Z,101469.53
2023-01-10T11:42:29.548Z,101465.19
2023-01-10T11:45:20.974Z,101473.28
2023-01-10T11:47:55.035Z,101469.84
2023-01-10T11:50:30.958Z,101460.97
2023-01-10T11:52:58.275Z,101456.34
2023-01-10T11:55:31.209Z,101448.56
2023-01-10T11:58:13.173Z,101444.22
2023-01-10T12:00:43.443Z,101444.00
2023-01-10T12:03:28.333Z,101439.56
2023-01-10T12:06:09.820Z,101423.84
2023-01-10T12:08:39.352Z,101431.47
2023-01-10T12:11:20.951Z,101419.72
2023-01-10T12:13:49.568Z,101408.31
2023-01-10T12:16:17.151Z,101404.28
2023-01-10T12:18:43.836Z,101408.88
2023-01-10T12:21:14.575Z,101403.59
2023-01-10T12:23:44.350Z,101403.97
2023-01-10T12:26:15.665Z,101390.59
2023-01-10T12:28:52.371Z,101397.78
2023-01-10T12:31:22.061Z,101400.13
2023-01-10T12:33:56.920Z,101401.22
2023-01-10T12:36:50.807Z,101388.16
2023-01-10T12:39:30.309Z,101386.94
2023-01-10T12:42:32.860Z,101376.59
2023-01-10T12:45:06.012Z,101372.94
2023-01-10T12:47:55.468Z,101369.56
2023-01-10T12:50:32.402Z,101366.97
2023-01-10T12:53:19.098Z,101355.72
2023-01-10T12:55:46.791Z,101348.25
2023-01-10T12:58:22.058Z,101352.28
2023-01-10T13:00:53.800Z,101329.03
2023-01-10T13:03:21.740Z,101325.22
2023-01-10T13:05:49.802Z,101312.00
2023-01-10T13:08:21.096Z,101303.81
2023-01-10T13:10:51.223Z,101308.47
2023-01-10T13:13:41.843Z,101302.81
2023-01-10T13:16:29.683Z,101303.59
2023-01-10T13:19:24.263Z,101296.06
2023-01-10T13:21:52.363Z,101295.03
2023-01-10T13:24:26.227Z,101286.72
2023-01-10T13:27:00.046Z,101294.22
2023-01-10T13:29:37.612Z,101284.53
2023-01-10T13:32:21.362Z,101280.84
2023-01-10T13:34:48.368Z,101269.53
2023-01-10T13:37:25.709Z,101269.09
2023-01-10T13:39:57.154Z,101263.69
2023-01-10T13:42:53.150Z,101267.91
2023-01-10T13:45:33.618Z,101265.41
2023-01-10T13:48:03.356Z,101260.84
2023-01-10T13:50:33.998Z,101257.66
2023-01-10T13:53:08.386Z,101241.56
2023-01-10T13:55:43.527Z,101241.09
2023-01-10T13:58:16.100Z,101226.41
2023-01-10T14:01:13.955Z,101222.88
2023-01-10T14:03:52.214Z,101216.06
2023-01-10T14:06:27.412Z,101217.41
2023-01-10T14:08:58.122Z,101209.38
2023-01-10T14:11:48.961Z,101205.34
2023-01-10T14:14:21.460Z,101194.13
2023-01-10T14:16:52.199Z,101194.66
2023-01-10T14:19:32.468Z,101188.63
2023-01-10T14:22:01.695Z,101173.88
2023-01-10T14:24:35.101Z,101166.03
2023-01-10T14:27:02.281Z,101165.72
2023-01-10T14:29:32.123Z,101158.53
2023-01-10T14:32:00.966Z,101158.53
2023-01-10T14:34:30.558Z,101145.94
2023-01-10T14:37:06.225Z,101135.88
2023-01-10T14:39:33.086Z,101124.66
2023-01-10T14:42:05.161Z,101108.44
2023-01-10T14:44:43.973Z,101094.91
2023-01-10T14:47:42.560Z,101090.69
2023-01-10T14:50:32.248Z,101078.28
2023-01-10T14:52:59.408Z,101080.28
2023-01-10T14:55:25.803Z,101071.25
2023-01-10T14:58:02.399Z,101060.56
2023-01-10T15:00:36.461Z,101060.38
2023-01-10T15:03:04.373Z,101067.13
2023-01-10T15:05:36.373Z,101061.28
2023-01-10T15:08:29.273Z,101065.94
2023-01-10T15:11:01.880Z,101039.97
2023-01-10T15:13:31.362Z,101045.19
2023-01-10T15:15:59.433Z,101023.59
2023-01-10T15:18:47.156Z,101010.88
2023-01-10T15:21:15.510Z,100999.53
2023-01-10T15:23:44.872Z,101002.88
2023-01-10T15:26:16.794Z,101017.94
2023-01-10T15:28:49.115Z,100997.22
2023-01-10T15:31:19.818Z,101001.91
2023-01-10T15:33:56.359Z,100994.72
2023-01-10T15:36:27.412Z,101001.56
2023-01-10T15:38:54.792Z,100986.69
2023-01-10T15:41:23.417Z,100992.22
2023-01-10T15:43:51.966Z,100997.06
2023-01-10T15:46:27.039Z,100994.88
2023-01-10T15:48:54.728Z,100986.53
2023-01-10T15:51:37.271Z,100978.38
2023-01-10T15:54:30.665Z,100978.38
2023-01-10T15:57:18.731Z,100964.84
2023-01-10T15:59:50.759Z,100960.81
2023-01-10T16:02:32.853Z,100940.25
2023-01-10T16:05:11.355Z,100936.56
2023-01-10T16:07:45.295Z,100940.44
2023-01-10T16:10:19.354Z,100908.88
2023-01-10T16:13:04.231Z,100892.81
2023-01-10T16:15:36.134Z,100889.78
2023-01-10T16:18:02.579Z,100882.25
2023-01-10T16:20:32.058Z,100869.09
2023-01-10T16:22:59.844Z,100874.22
2023-01-10T16:25:34.180Z,100872.59
2023-01-10T16:28:00.935Z,100881.13
2023-01-10T16:30:32.960Z,100885.13
2023-01-10T16:33:02.684Z,100887.81
2023-01-10T16:35:29.070Z,100875.47
2023-01-10T16:37:58.569Z,100871.59
2023-01-10T16:40:28.571Z,100859.56
2023-01-10T16:43:14.073Z,100861.72
2023-01-10T16:45:40.883Z,100835.00
2023-01-10T16:48:07.458Z,100838.03
2023-01-10T16:50:33.885Z,100849.19
2023-01-10T16:53:00.469Z,100836.53
2023-01-10T16:55:37.169Z,100839.69
2023-01-10T16:58:03.779Z,100842.06
2023-01-10T17:00:30.297Z,100821.66
2023-01-10T17:02:58.251Z,100820.47
2023-01-10T17:05:24.899Z,100837.53
2023-01-10T17:07:51.329Z,100825.31
2023-01-10T17:10:17.815Z,100832.69
2023-01-10T17:12:45.500Z,100819.16
2023-01-10T17:15:14.561Z,100806.28
2023-01-10T17:17:45.067Z,100809.28
2023-01-10T17:20:14.188Z,100800.25
2023-01-10T17:22:42.124Z,100792.59
2023-01-10T17:25:14.864Z,100788.91
2023-01-10T17:27:41.746Z,100788.72
2023-01-10T17:30:09.145Z,100781.41
2023-01-10T17:32:35.951Z,100777.03
2023-01-10T17:35:02.390Z,100776.06
2023-01-10T17:37:28.778Z,100775.03
2023-01-10T17:39:55.273Z,100771.88
2023-01-10T17:42:22.728Z,100762.84
2023-01-10T17:44:49.518Z,100756.13
2023-01-10T17:47:16.111Z,100762.81
2023-01-10T17:49:42.521Z,100761.84
2023-01-10T17:52:09.037Z,100757.84
2023-01-10T17:54:36.187Z,100753.66
2023-01-10T17:57:04.057Z,100737.59
2023-01-10T17:59:30.794Z,100736.44
2023-01-10T18:01:57.370Z,100741.09
2023-01-10T18:04:23.843Z,100731.41
2023-01-10T18:06:52.096Z,100732.91
2023-01-10T18:09:19.279Z,100723.03
2023-01-10T18:11:45.693Z,100727.69
2023-01-10T18:14:30.759Z,100726.66
2023-01-10T18:16:57.185Z,100734.69
2023-01-10T18:19:23.701Z,100728.66
2023-01-10T18:21:50.083Z,100721.16
2023-01-10T18:24:16.446Z,100711.78
2023-01-10T18:26:42.854Z,100722.25
2023-01-10T18:29:09.811Z,100724.63
2023-01-10T18:31:36.289Z,100713.44
2023-01-10T18:34:02.753Z,100715.56
2023-01-10T18:36:29.135Z,100710.69
2023-01-10T18:38:57.564Z,100713.38
2023-01-10T18:41:23.925Z,100716.22
2023-01-10T18:43:50.391Z,100705.53
2023-01-10T18:46:20.693Z,100716.19
2023-01-10T18:48:49.767Z,100714.47
2023-01-10T18:51:18.740Z,100703.75
2023-01-10T18:53:45.869Z,100708.94
2023-01-10T18:56:12.282Z,100698.53
2023-01-10T18:58:41.263Z,100677.63
2023-01-10T19:01:19.185Z,100693.00
2023-01-10T19:03:46.215Z,100691.19
2023-01-10T19:06:16.436Z,100690.47
2023-01-10T19:08:44.262Z,100681.75
2023-01-10T19:11:14.277Z,100673.34
2023-01-10T19:13:42.409Z,100684.91
2023-01-10T19:16:27.027Z,100679.91
2023-01-10T19:19:02.778Z,100701.31
2023-01-10T19:21:31.348Z,100675.84
2023-01-10T19:24:02.006Z,100679.84
2023-01-10T19:26:28.519Z,100680.69
2023-01-10T19:28:54.975Z,100676.56
2023-01-10T19:31:27.071Z,100675.63
2023-01-10T19:33:54.568Z,100665.44
2023-01-10T19:36:22.792Z,100667.59
2023-01-10T19:38:56.643Z,100655.03
2023-01-10T19:41:25.204Z,100656.16
2023-01-10T19:43:59.201Z,100657.34
2023-01-10T19:46:26.988Z,100653.72
2023-01-10T19:48:55.434Z,100641.28
2023-01-10T19:51:21.866Z,100634.00
2023-01-10T19:53:48.312Z,100642.16
2023-01-10T19:56:19.634Z,100637.53
2023-01-10T19:58:46.072Z,100635.59
2023-01-10T20:01:15.741Z,100649.84
2023-01-10T20:03:42.665Z,100637.78
2023-01-10T20:06:10.960Z,100634.22
2023-01-10T20:08:37.442Z,100623.44
2023-01-10T20:11:05.640Z,100623.97
2023-01-10T20:13:33.921Z,100625.00
2023-01-10T20:16:00.386Z,100615.59
2023-01-10T20:18:27.069Z,100618.63
2023-01-10T20:20:53.521Z,100611.34
2023-01-10T20:23:22.400Z,100605.34
2023-01-10T20:26:02.146Z,100602.88
2023-01-10T20:28:29.546Z,100591.94
2023-01-10T20:30:55.982Z,100589.47
2023-01-10T20:33:22.775Z,100596.66
2023-01-10T20:36:06.200Z,100603.63
2023-01-10T20:38:34.122Z,100591.41
2023-01-10T20:41:04.294Z,100583.72
2023-01-10T20:43:30.948Z,100576.06
2023-01-10T20:45:57.374Z,100590.69
2023-01-10T20:48:23.780Z,100580.31
2023-01-10T20:50:50.286Z,100578.47
2023-01-10T20:53:16.744Z,100571.84
2023-01-10T20:55:44.211Z,100557.22
2023-01-10T20:58:11.949Z,100559.53
2023-01-10T21:00:38.799Z,100559.81
2023-01-10T21:03:06.195Z,100568.59
2023-01-10T21:05:33.086Z,100558.91
2023-01-10T21:07:59.506Z,100572.31
2023-01-10T21:10:25.903Z,100558.44
2023-01-10T21:12:52.313Z,100551.28
2023-01-10T21:15:18.722Z,100548.91
2023-01-10T21:17:45.149Z,100532.91
2023-01-10T21:20:11.993Z,100531.03
2023-01-10T21:22:38.405Z,100537.81
2023-01-10T21:25:05.280Z,100534.94
2023-01-10T21:27:31.901Z,100526.97
2023-01-10T21:29:58.615Z,100517.28
2023-01-10T21:32:25.149Z,100529.03
2023-01-10T21:34:51.749Z,100519.31
2023-01-10T21:37:18.185Z,100514.44
2023-01-10T21:39:44.591Z,100512.19
2023-01-10T21:42:30.753Z,100521.25
2023-01-10T21:44:57.471Z,100520.50
2023-01-10T21:47:24.140Z,100509.06
2023-01-10T21:49:51.179Z,100510.03
2023-01-10T21:52:17.831Z,100500.63
2023-01-10T21:54:44.363Z,100500.31
2023-01-10T21:57:10.755Z,100503.00
2023-01-10T21:59:40.685Z,100492.47
2023-01-10T22:02:12.338Z,100487.78
2023-01-10T22:04:38.833Z,100492.09
2023-01-10T22:07:05.298Z,100489.31
2023-01-10T22:09:31.673Z,100486.88
2023-01-10T22:11:58.179Z,100486.63
2023-01-10T22:14:24.550Z,100489.34
2023-01-10T22:16:51.074Z,100473.25
2023-01-10T22:19:17.561Z,100470.41
2023-01-10T22:21:44.009Z,100465.50
2023-01-10T22:24:11.752Z,100468.91
2023-01-10T22:26:38.508Z,100464.25
2023-01-10T22:29:05.079Z,100461.19
2023-01-10T22:31:31.516Z,100465.75
2023-01-10T22:33:57.962Z,100457.31
2023-01-10T22:36:24.563Z,100453.47
2023-01-10T22:38:51.020Z,100445.78
2023-01-10T22:41:19.924Z,100447.50
2023-01-10T22:43:46.955Z,100448.78
2023-01-10T22:46:16.970Z,100444.69
2023-01-10T22:48:43.841Z,100449.22
2023-01-10T22:51:10.458Z,100445.13
2023-01-10T22:53:36.875Z,100436.88
2023-01-10T22:56:05.718Z,100442.69
2023-01-10T22:58:32.898Z,100439.63
2023-01-10T23:00:59.419Z,100435.09
2023-01-10T23:03:25.867Z,100425.59
2023-01-10T23:05:56.632Z,100429.78
2023-01-10T23:08:23.559Z,100429.63
2023-01-10T23:10:50.041Z,100432.91
2023-01-10T23:13:16.452Z,100419.06
2023-01-10T23:15:42.808Z,100437.84
2023-01-10T23:18:09.230Z,100416.78
2023-01-10T23:20:35.593Z,100428.78
2023-01-10T23:23:04.032Z,100421.34
2023-01-10T23:25:30.456Z,100420.16
2023-01-10T23:27:56.890Z,100406.28
2023-01-10T23:30:26.530Z,100413.53
2023-01-10T23:32:53.568Z,100412.31
2023-01-10T23:35:19.977Z,100408.16
2023-01-10T23:37:46.390Z,100398.50
2023-01-10T23:40:13.097Z,100406.34
2023-01-10T23:42:39.527Z,100415.44
2023-01-10T23:45:06.618Z,100410.28
2023-01-10T23:47:33.060Z,100402.00
2023-01-10T23:49:59.465Z,100396.88
2023-01-10T23:52:25.830Z,100396.09
2023-01-10T23:54:53.319Z,100402.69
2023-01-10T23:57:19.716Z,100391.38
2023-01-10T23:59:46.107Z,100398.41
